sensor_id;sensor_type;location;lat;lon;timestamp;pressure;altitude;pressure_sealevel;temperature;humidity
31005;BME280;17676;52.254;4.490;2024-02-26T00:00:32;100146.50;;;7.26;100.00
31005;BME280;17676;52.254;4.490;2024-02-26T00:03:01;100141.78;;;7.34;100.00
31005;BME280;17676;52.254;4.490;2024-02-26T00:05:28;100144.47;;;7.34;100.00
31005;BME280;17676;52.254;4.490;2024-02-26T00:07:54;100152.75;;;7.33;100.00
31005;BME280;17676;52.254;4.490;2024-02-26T00:10:22;100150.66;;;7.22;100.00
31005;BME280;17676;52.254;4.490;2024-02-26T00:12:49;100151.88;;;7.06;100.00
31005;BME280;17676;52.254;4.490;2024-02-26T00:15:15;100143.19;;;7.11;100.00
31005;BME280;17676;52.254;4.490;2024-02-26T00:17:42;100164.34;;;7.27;100.00
31005;BME280;17676;52.254;4.490;2024-02-26T00:20:10;100170.50;;;7.14;100.00
31005;BME280;17676;52.254;4.490;2024-02-26T00:22:37;100165.81;;;7.29;100.00
31005;BME280;17676;52.254;4.490;2024-02-26T00:25:04;100154.94;;;7.03;100.00
31005;BME280;17676;52.254;4.490;2024-02-26T00:27:31;100166.38;;;7.18;100.00
31005;BME280;17676;52.254;4.490;2024-02-26T00:29:57;100163.69;;;7.18;100.00
31005;BME280;17676;52.254;4.490;2024-02-26T00:32:24;100176.31;;;7.18;100.00
31005;BME280;17676;52.254;4.490;2024-02-26T00:34:51;100161.41;;;7.22;100.00
31005;BME280;17676;52.254;4.490;2024-02-26T00:37:18;100175.91;;;7.14;100.00
31005;BME280;17676;52.254;4.490;2024-02-26T00:39:45;100170.13;;;7.24;100.00
31005;BME280;17676;52.254;4.490;2024-02-26T00:42:13;100177.56;;;7.22;100.00
31005;BME280;17676;52.254;4.490;2024-02-26T00:44:39;100164.06;;;7.09;100.00
31005;BME280;17676;52.254;4.490;2024-02-26T00:47:06;100179.19;;;7.10;100.00
31005;BME280;17676;52.254;4.490;2024-02-26T00:49:33;100167.63;;;7.16;100.00
31005;BME280;17676;52.254;4.490;2024-02-26T00:51:59;100179.00;;;7.18;100.00
31005;BME280;17676;52.254;4.490;2024-02-26T00:54:26;100172.16;;;7.09;100.00
31005;BME280;17676;52.254;4.490;2024-02-26T00:56:52;100156.84;;;7.09;100.00
31005;BME280;17676;52.254;4.490;2024-02-26T00:59:19;100169.25;;;7.04;100.00
31005;BME280;17676;52.254;4.490;2024-02-26T01:01:46;100166.09;;;6.94;100.00
31005;BME280;17676;52.254;4.490;2024-02-26T01:04:12;100176.09;;;7.13;100.00
31005;BME280;17676;52.254;4.490;2024-02-26T01:06:39;100174.84;;;7.09;100.00
31005;BME280;17676;52.254;4.490;2024-02-26T01:09:06;100175.47;;;7.11;100.00
31005;BME280;17676;52.254;4.490;2024-02-26T01:11:33;100170.50;;;7.08;100.00
31005;BME280;17676;52.254;4.490;2024-02-26T01:13:59;100185.78;;;7.07;100.00
31005;BME280;17676;52.254;4.490;2024-02-26T01:16:26;100186.81;;;7.00;100.00
31005;BME280;17676;52.254;4.490;2024-02-26T01:18:55;100186.47;;;7.16;100.00
31005;BME280;17676;52.254;4.490;2024-02-26T01:21:22;100181.06;;;7.16;100.00
31005;BME280;17676;52.254;4.490;2024-02-26T01:23:49;100194.13;;;7.19;100.00
31005;BME280;17676;52.254;4.490;2024-02-26T01:26:15;100175.69;;;7.16;100.00
31005;BME280;17676;52.254;4.490;2024-02-26T01:28:42;100163.00;;;7.03;100.00
31005;BME280;17676;52.254;4.490;2024-02-26T01:31:09;100178.56;;;7.08;100.00
31005;BME280;17676;52.254;4.490;2024-02-26T01:33:36;100190.00;;;7.23;100.00
31005;BME280;17676;52.254;4.490;2024-02-26T01:36:03;100198.66;;;7.12;100.00
31005;BME280;17676;52.254;4.490;2024-02-26T01:38:30;100192.44;;;7.18;100.00
31005;BME280;17676;52.254;4.490;2024-02-26T01:40:57;100186.25;;;7.11;100.00
31005;BME280;17676;52.254;4.490;2024-02-26T01:43:23;100179.25;;;7.23;100.00
31005;BME280;17676;52.254;4.490;2024-02-26T01:45:50;100176.28;;;7.05;100.00
31005;BME280;17676;52.254;4.490;2024-02-26T01:48:16;100189.31;;;7.08;100.00
31005;BME280;17676;52.254;4.490;2024-02-26T01:50:43;100179.16;;;7.03;100.00
31005;BME280;17676;52.254;4.490;2024-02-26T01:53:10;100189.53;;;7.13;100.00
31005;BME280;17676;52.254;4.490;2024-02-26T01:55:37;100177.56;;;7.22;100.00
31005;BME280;17676;52.254;4.490;2024-02-26T01:58:05;100168.63;;;7.08;100.00
31005;BME280;17676;52.254;4.490;2024-02-26T02:00:32;100166.75;;;7.09;100.00
31005;BME280;17676;52.254;4.490;2024-02-26T02:03:00;100179.25;;;7.23;100.00
31005;BME280;17676;52.254;4.490;2024-02-26T02:05:27;100136.50;;;6.94;100.00
31005;BME280;17676;52.254;4.490;2024-02-26T02:07:55;100186.88;;;7.26;100.00
31005;BME280;17676;52.254;4.490;2024-02-26T02:10:21;100190.59;;;7.12;100.00
31005;BME280;17676;52.254;4.490;2024-02-26T02:12:52;100178.53;;;6.95;100.00
31005;BME280;17676;52.254;4.490;2024-02-26T02:15:19;100189.94;;;7.10;100.00
31005;BME280;17676;52.254;4.490;2024-02-26T02:17:46;100166.88;;;6.81;100.00
31005;BME280;17676;52.254;4.490;2024-02-26T02:20:17;100210.16;;;6.93;100.00
31005;BME280;17676;52.254;4.490;2024-02-26T02:22:45;100215.19;;;7.09;100.00
31005;BME280;17676;52.254;4.490;2024-02-26T02:25:12;100218.72;;;7.09;100.00
31005;BME280;17676;52.254;4.490;2024-02-26T02:27:40;100206.50;;;7.07;100.00
31005;BME280;17676;52.254;4.490;2024-02-26T02:30:08;100228.47;;;7.17;100.00
31005;BME280;17676;52.254;4.490;2024-02-26T02:32:37;100229.31;;;7.17;100.00
31005;BME280;17676;52.254;4.490;2024-02-26T02:35:06;100214.78;;;7.12;100.00
31005;BME280;17676;52.254;4.490;2024-02-26T02:37:33;100238.84;;;7.26;100.00
31005;BME280;17676;52.254;4.490;2024-02-26T02:40:00;100232.59;;;7.13;100.00
31005;BME280;17676;52.254;4.490;2024-02-26T02:42:27;100232.97;;;7.03;100.00
31005;BME280;17676;52.254;4.490;2024-02-26T02:44:54;100220.53;;;6.96;100.00
31005;BME280;17676;52.254;4.490;2024-02-26T02:47:20;100237.72;;;7.01;100.00
31005;BME280;17676;52.254;4.490;2024-02-26T02:49:47;100225.06;;;6.95;100.00
31005;BME280;17676;52.254;4.490;2024-02-26T02:52:14;100242.06;;;7.02;100.00
31005;BME280;17676;52.254;4.490;2024-02-26T02:54:40;100242.25;;;7.01;100.00
31005;BME280;17676;52.254;4.490;2024-02-26T02:57:09;100220.34;;;7.04;100.00
31005;BME280;17676;52.254;4.490;2024-02-26T02:59:37;100236.28;;;6.99;100.00
31005;BME280;17676;52.254;4.490;2024-02-26T03:02:04;100240.31;;;6.82;100.00
31005;BME280;17676;52.254;4.490;2024-02-26T03:04:32;100246.59;;;7.02;100.00
31005;BME280;17676;52.254;4.490;2024-02-26T03:06:59;100236.25;;;6.92;100.00
31005;BME280;17676;52.254;4.490;2024-02-26T03:09:27;100234.53;;;6.85;100.00
31005;BME280;17676;52.254;4.490;2024-02-26T03:11:53;100247.41;;;6.96;100.00
31005;BME280;17676;52.254;4.490;2024-02-26T03:14:20;100171.31;;;6.55;100.00
31005;BME280;17676;52.254;4.490;2024-02-26T03:16:47;100237.28;;;6.98;100.00
31005;BME280;17676;52.254;4.490;2024-02-26T03:19:16;100261.88;;;6.88;100.00
31005;BME280;17676;52.254;4.490;2024-02-26T03:21:43;100251.59;;;7.05;100.00
31005;BME280;17676;52.254;4.490;2024-02-26T03:24:10;100248.72;;;7.13;100.00
31005;BME280;17676;52.254;4.490;2024-02-26T03:26:37;100241.66;;;6.99;100.00
31005;BME280;17676;52.254;4.490;2024-02-26T03:29:04;100245.56;;;6.96;100.00
31005;BME280;17676;52.254;4.490;2024-02-26T03:31:31;100257.31;;;6.89;100.00
31005;BME280;17676;52.254;4.490;2024-02-26T03:33:58;100254.53;;;7.16;100.00
31005;BME280;17676;52.254;4.490;2024-02-26T03:36:25;100259.47;;;7.06;100.00
31005;BME280;17676;52.254;4.490;2024-02-26T03:38:52;100259.09;;;7.16;100.00
31005;BME280;17676;52.254;4.490;2024-02-26T03:41:19;100226.28;;;6.93;100.00
31005;BME280;17676;52.254;4.490;2024-02-26T03:43:45;100257.38;;;7.02;100.00
31005;BME280;17676;52.254;4.490;2024-02-26T03:46:12;100269.00;;;7.09;100.00
31005;BME280;17676;52.254;4.490;2024-02-26T03:48:41;100269.38;;;7.06;100.00
31005;BME280;17676;52.254;4.490;2024-02-26T03:51:08;100275.09;;;6.90;100.00
31005;BME280;17676;52.254;4.490;2024-02-26T03:53:36;100285.28;;;6.94;100.00
31005;BME280;17676;52.254;4.490;2024-02-26T03:56:04;100273.66;;;6.94;100.00
31005;BME280;17676;52.254;4.490;2024-02-26T03:58:31;100287.44;;;7.12;100.00
31005;BME280;17676;52.254;4.490;2024-02-26T04:00:59;100278.53;;;7.11;100.00
31005;BME280;17676;52.254;4.490;2024-02-26T04:03:26;100294.63;;;7.05;100.00
31005;BME280;17676;52.254;4.490;2024-02-26T04:05:53;100281.34;;;6.97;100.00
31005;BME280;17676;52.254;4.490;2024-02-26T04:08:20;100283.47;;;7.08;100.00
31005;BME280;17676;52.254;4.490;2024-02-26T04:10:47;100292.16;;;7.10;100.00
31005;BME280;17676;52.254;4.490;2024-02-26T04:13:14;100309.56;;;7.14;100.00
31005;BME280;17676;52.254;4.490;2024-02-26T04:15:41;100316.22;;;7.18;100.00
31005;BME280;17676;52.254;4.490;2024-02-26T04:18:08;100309.56;;;7.14;100.00
31005;BME280;17676;52.254;4.490;2024-02-26T04:20:35;100311.66;;;7.12;100.00
31005;BME280;17676;52.254;4.490;2024-02-26T04:23:03;100301.44;;;7.01;100.00
31005;BME280;17676;52.254;4.490;2024-02-26T04:25:29;100308.72;;;7.00;100.00
31005;BME280;17676;52.254;4.490;2024-02-26T04:27:56;100294.63;;;7.05;100.00
31005;BME280;17676;52.254;4.490;2024-02-26T04:30:23;100308.91;;;6.99;100.00
31005;BME280;17676;52.254;4.490;2024-02-26T04:32:50;100328.13;;;6.96;100.00
31005;BME280;17676;52.254;4.490;2024-02-26T04:35:17;100316.94;;;6.92;100.00
31005;BME280;17676;52.254;4.490;2024-02-26T04:37:44;100333.00;;;6.86;100.00
31005;BME280;17676;52.254;4.490;2024-02-26T04:40:10;100336.19;;;6.96;100.00
31005;BME280;17676;52.254;4.490;2024-02-26T04:42:37;100337.06;;;7.03;100.00
31005;BME280;17676;52.254;4.490;2024-02-26T04:45:04;100322.25;;;6.86;100.00
31005;BME280;17676;52.254;4.490;2024-02-26T04:47:31;100314.47;;;6.70;100.00
31005;BME280;17676;52.254;4.490;2024-02-26T04:49:57;100333.41;;;6.83;100.00
31005;BME280;17676;52.254;4.490;2024-02-26T04:52:24;100353.25;;;6.82;100.00
31005;BME280;17676;52.254;4.490;2024-02-26T04:54:51;100347.09;;;6.88;100.00
31005;BME280;17676;52.254;4.490;2024-02-26T04:57:17;100347.34;;;6.93;100.00
31005;BME280;17676;52.254;4.490;2024-02-26T04:59:45;100346.88;;;6.83;100.00
31005;BME280;17676;52.254;4.490;2024-02-26T05:02:13;100332.34;;;6.77;100.00
31005;BME280;17676;52.254;4.490;2024-02-26T05:04:41;100315.03;;;6.59;100.00
31005;BME280;17676;52.254;4.490;2024-02-26T05:07:07;100366.16;;;6.93;100.00
31005;BME280;17676;52.254;4.490;2024-02-26T05:09:34;100352.47;;;6.88;100.00
31005;BME280;17676;52.254;4.490;2024-02-26T05:12:01;100366.63;;;6.96;100.00
31005;BME280;17676;52.254;4.490;2024-02-26T05:14:28;100356.59;;;6.84;100.00
31005;BME280;17676;52.254;4.490;2024-02-26T05:16:55;100361.97;;;6.84;100.00
31005;BME280;17676;52.254;4.490;2024-02-26T05:19:22;100370.66;;;6.86;100.00
31005;BME280;17676;52.254;4.490;2024-02-26T05:21:49;100378.19;;;6.97;100.00
31005;BME280;17676;52.254;4.490;2024-02-26T05:24:17;100368.56;;;6.81;100.00
31005;BME280;17676;52.254;4.490;2024-02-26T05:26:45;100387.59;;;6.80;100.00
31005;BME280;17676;52.254;4.490;2024-02-26T05:29:12;100371.22;;;6.75;100.00
31005;BME280;17676;52.254;4.490;2024-02-26T05:31:38;100386.16;;;6.84;100.00
31005;BME280;17676;52.254;4.490;2024-02-26T05:34:06;100368.84;;;6.65;100.00
31005;BME280;17676;52.254;4.490;2024-02-26T05:36:33;100398.38;;;6.86;100.00
31005;BME280;17676;52.254;4.490;2024-02-26T05:39:00;100390.78;;;6.69;100.00
31005;BME280;17676;52.254;4.490;2024-02-26T05:41:27;100402.72;;;6.87;100.00
31005;BME280;17676;52.254;4.490;2024-02-26T05:43:54;100395.41;;;6.75;100.00
31005;BME280;17676;52.254;4.490;2024-02-26T05:46:21;100376.72;;;6.67;100.00
31005;BME280;17676;52.254;4.490;2024-02-26T05:48:50;100393.66;;;6.88;100.00
31005;BME280;17676;52.254;4.490;2024-02-26T05:51:17;100403.47;;;6.75;100.00
31005;BME280;17676;52.254;4.490;2024-02-26T05:53:44;100416.19;;;6.87;100.00
31005;BME280;17676;52.254;4.490;2024-02-26T05:56:10;100412.53;;;6.74;100.00
31005;BME280;17676;52.254;4.490;2024-02-26T05:58:37;100412.31;;;6.69;100.00
31005;BME280;17676;52.254;4.490;2024-02-26T06:01:04;100408.38;;;6.92;100.00
31005;BME280;17676;52.254;4.490;2024-02-26T06:03:31;100412.81;;;6.79;100.00
31005;BME280;17676;52.254;4.490;2024-02-26T06:05:57;100430.34;;;6.96;100.00
31005;BME280;17676;52.254;4.490;2024-02-26T06:08:24;100435.59;;;6.83;100.00
31005;BME280;17676;52.254;4.490;2024-02-26T06:10:51;100434.38;;;6.85;100.00
31005;BME280;17676;52.254;4.490;2024-02-26T06:13:18;100446.75;;;6.80;100.00
31005;BME280;17676;52.254;4.490;2024-02-26T06:15:45;100452.25;;;6.72;100.00
31005;BME280;17676;52.254;4.490;2024-02-26T06:18:11;100456.97;;;6.70;100.00
31005;BME280;17676;52.254;4.490;2024-02-26T06:20:38;100457.22;;;6.54;100.00
31005;BME280;17676;52.254;4.490;2024-02-26T06:23:04;100446.88;;;6.51;100.00
31005;BME280;17676;52.254;4.490;2024-02-26T06:25:31;100456.44;;;6.53;100.00
31005;BME280;17676;52.254;4.490;2024-02-26T06:27:58;100456.47;;;6.60;100.00
31005;BME280;17676;52.254;4.490;2024-02-26T06:30:24;100459.78;;;6.62;100.00
31005;BME280;17676;52.254;4.490;2024-02-26T06:32:51;100455.94;;;6.50;100.00
31005;BME280;17676;52.254;4.490;2024-02-26T06:35:18;100489.91;;;6.72;100.00
31005;BME280;17676;52.254;4.490;2024-02-26T06:37:45;100469.41;;;6.71;100.00
31005;BME280;17676;52.254;4.490;2024-02-26T06:40:12;100460.19;;;6.38;100.00
31005;BME280;17676;52.254;4.490;2024-02-26T06:42:38;100485.63;;;6.42;100.00
31005;BME280;17676;52.254;4.490;2024-02-26T06:45:05;100486.31;;;6.44;100.00
31005;BME280;17676;52.254;4.490;2024-02-26T06:47:34;100475.28;;;6.39;100.00
31005;BME280;17676;52.254;4.490;2024-02-26T06:50:00;100499.66;;;6.37;100.00
31005;BME280;17676;52.254;4.490;2024-02-26T06:52:27;100498.09;;;6.43;100.00
31005;BME280;17676;52.254;4.490;2024-02-26T06:54:54;100508.97;;;6.56;100.00
31005;BME280;17676;52.254;4.490;2024-02-26T06:57:21;100516.06;;;6.42;100.00
31005;BME280;17676;52.254;4.490;2024-02-26T06:59:48;100506.78;;;6.45;100.00
31005;BME280;17676;52.254;4.490;2024-02-26T07:02:15;100518.94;;;6.41;100.00
31005;BME280;17676;52.254;4.490;2024-02-26T07:04:43;100539.75;;;6.53;100.00
31005;BME280;17676;52.254;4.490;2024-02-26T07:07:10;100524.19;;;6.49;100.00
31005;BME280;17676;52.254;4.490;2024-02-26T07:09:37;100528.53;;;6.50;100.00
31005;BME280;17676;52.254;4.490;2024-02-26T07:12:04;100539.16;;;6.58;100.00
31005;BME280;17676;52.254;4.490;2024-02-26T07:14:31;100526.88;;;6.49;100.00
31005;BME280;17676;52.254;4.490;2024-02-26T07:16:59;100531.72;;;6.39;100.00
31005;BME280;17676;52.254;4.490;2024-02-26T07:19:25;100543.59;;;6.44;100.00
31005;BME280;17676;52.254;4.490;2024-02-26T07:21:52;100542.75;;;6.44;100.00
31005;BME280;17676;52.254;4.490;2024-02-26T07:24:18;100532.00;;;6.44;100.00
31005;BME280;17676;52.254;4.490;2024-02-26T07:26:45;100562.38;;;6.59;100.00
31005;BME280;17676;52.254;4.490;2024-02-26T07:29:12;100536.06;;;6.40;100.00
31005;BME280;17676;52.254;4.490;2024-02-26T07:31:39;100563.75;;;6.55;100.00
31005;BME280;17676;52.254;4.490;2024-02-26T07:34:05;100563.81;;;6.40;100.00
31005;BME280;17676;52.254;4.490;2024-02-26T07:36:32;100545.34;;;6.37;100.00
31005;BME280;17676;52.254;4.490;2024-02-26T07:38:59;100585.44;;;6.53;100.00
31005;BME280;17676;52.254;4.490;2024-02-26T07:41:26;100569.41;;;6.60;100.00
31005;BME280;17676;52.254;4.490;2024-02-26T07:43:52;100587.56;;;6.58;100.00
31005;BME280;17676;52.254;4.490;2024-02-26T07:46:19;100589.38;;;6.72;100.00
31005;BME280;17676;52.254;4.490;2024-02-26T07:48:45;100569.41;;;6.60;100.00
31005;BME280;17676;52.254;4.490;2024-02-26T07:51:13;100586.75;;;6.57;100.00
31005;BME280;17676;52.254;4.490;2024-02-26T07:53:43;100527.69;;;5.99;100.00
31005;BME280;17676;52.254;4.490;2024-02-26T07:56:10;100593.16;;;6.42;100.00
31005;BME280;17676;52.254;4.490;2024-02-26T07:58:37;100596.50;;;6.44;100.00
31005;BME280;17676;52.254;4.490;2024-02-26T08:01:03;100592.56;;;6.61;100.00
31005;BME280;17676;52.254;4.490;2024-02-26T08:03:30;100591.00;;;6.52;100.00
31005;BME280;17676;52.254;4.490;2024-02-26T08:05:57;100599.22;;;6.65;100.00
31005;BME280;17676;52.254;4.490;2024-02-26T08:08:24;100604.97;;;6.62;100.00
31005;BME280;17676;52.254;4.490;2024-02-26T08:10:50;100601.41;;;6.55;100.00
31005;BME280;17676;52.254;4.490;2024-02-26T08:13:17;100618.72;;;6.67;100.00
31005;BME280;17676;52.254;4.490;2024-02-26T08:15:44;100617.78;;;6.60;100.00
31005;BME280;17676;52.254;4.490;2024-02-26T08:18:10;100623.53;;;6.57;100.00
31005;BME280;17676;52.254;4.490;2024-02-26T08:20:37;100616.03;;;6.67;100.00
31005;BME280;17676;52.254;4.490;2024-02-26T08:23:04;100625.00;;;6.59;100.00
31005;BME280;17676;52.254;4.490;2024-02-26T08:25:30;100620.03;;;6.56;100.00
31005;BME280;17676;52.254;4.490;2024-02-26T08:27:57;100622.13;;;6.61;100.00
31005;BME280;17676;52.254;4.490;2024-02-26T08:30:24;100628.25;;;6.69;100.00
31005;BME280;17676;52.254;4.490;2024-02-26T08:32:51;100621.28;;;6.75;100.00
31005;BME280;17676;52.254;4.490;2024-02-26T08:35:19;100618.53;;;6.54;100.00
31005;BME280;17676;52.254;4.490;2024-02-26T08:37:47;100614.63;;;6.71;100.00
31005;BME280;17676;52.254;4.490;2024-02-26T08:40:14;100630.69;;;6.64;100.00
31005;BME280;17676;52.254;4.490;2024-02-26T08:42:41;100635.84;;;6.80;100.00
31005;BME280;17676;52.254;4.490;2024-02-26T08:45:08;100582.22;;;6.29;100.00
31005;BME280;17676;52.254;4.490;2024-02-26T08:47:35;100635.38;;;6.77;100.00
31005;BME280;17676;52.254;4.490;2024-02-26T08:50:03;100648.63;;;6.78;100.00
31005;BME280;17676;52.254;4.490;2024-02-26T08:52:30;100652.28;;;6.71;100.00
31005;BME280;17676;52.254;4.490;2024-02-26T08:54:57;100631.13;;;6.68;100.00
31005;BME280;17676;52.254;4.490;2024-02-26T08:57:24;100654.00;;;6.78;100.00
31005;BME280;17676;52.254;4.490;2024-02-26T08:59:53;100659.16;;;6.94;100.00
31005;BME280;17676;52.254;4.490;2024-02-26T09:02:20;100660.38;;;6.92;100.00
31005;BME280;17676;52.254;4.490;2024-02-26T09:04:46;100667.03;;;6.96;100.00
31005;BME280;17676;52.254;4.490;2024-02-26T09:07:13;100665.88;;;6.84;100.00
31005;BME280;17676;52.254;4.490;2024-02-26T09:09:40;100664.91;;;6.91;100.00
31005;BME280;17676;52.254;4.490;2024-02-26T09:12:07;100650.75;;;6.83;100.00
31005;BME280;17676;52.254;4.490;2024-02-26T09:14:34;100686.13;;;7.01;100.00
31005;BME280;17676;52.254;4.490;2024-02-26T09:17:01;100685.88;;;6.96;100.00
31005;BME280;17676;52.254;4.490;2024-02-26T09:19:27;100688.94;;;6.93;100.00
31005;BME280;17676;52.254;4.490;2024-02-26T09:21:55;100683.19;;;6.96;100.00
31005;BME280;17676;52.254;4.490;2024-02-26T09:24:24;100686.72;;;6.96;100.00
31005;BME280;17676;52.254;4.490;2024-02-26T09:26:51;100695.88;;;7.02;100.00
31005;BME280;17676;52.254;4.490;2024-02-26T09:29:18;100693.00;;;7.03;100.00
31005;BME280;17676;52.254;4.490;2024-02-26T09:31:45;100690.78;;;7.07;100.00
31005;BME280;17676;52.254;4.490;2024-02-26T09:34:14;100703.94;;;7.02;100.00
31005;BME280;17676;52.254;4.490;2024-02-26T09:36:41;100705.22;;;7.06;100.00
31005;BME280;17676;52.254;4.490;2024-02-26T09:39:07;100712.81;;;7.17;100.00
31005;BME280;17676;52.254;4.490;2024-02-26T09:41:38;100709.50;;;7.15;100.00
31005;BME280;17676;52.254;4.490;2024-02-26T09:44:05;100713.72;;;7.24;100.00
31005;BME280;17676;52.254;4.490;2024-02-26T09:46:33;100715.03;;;7.28;100.00
31005;BME280;17676;52.254;4.490;2024-02-26T09:49:00;100727.00;;;7.25;100.00
31005;BME280;17676;52.254;4.490;2024-02-26T09:51:27;100697.03;;;7.14;100.00
31005;BME280;17676;52.254;4.490;2024-02-26T09:53:59;100740.53;;;7.32;100.00
31005;BME280;17676;52.254;4.490;2024-02-26T09:56:28;100734.97;;;7.33;100.00
31005;BME280;17676;52.254;4.490;2024-02-26T09:58:57;100738.31;;;7.21;100.00
31005;BME280;17676;52.254;4.490;2024-02-26T10:01:24;100721.91;;;7.16;100.00
31005;BME280;17676;52.254;4.490;2024-02-26T10:03:56;100750.56;;;7.23;100.00
31005;BME280;17676;52.254;4.490;2024-02-26T10:06:26;100755.66;;;7.33;100.00
31005;BME280;17676;52.254;4.490;2024-02-26T10:08:54;100750.00;;;7.28;100.00
31005;BME280;17676;52.254;4.490;2024-02-26T10:11:23;100763.41;;;7.21;100.00
31005;BME280;17676;52.254;4.490;2024-02-26T10:13:50;100757.06;;;7.29;100.00
31005;BME280;17676;52.254;4.490;2024-02-26T10:16:17;100754.22;;;7.51;100.00
31005;BME280;17676;52.254;4.490;2024-02-26T10:18:48;100761.06;;;7.75;100.00
31005;BME280;17676;52.254;4.490;2024-02-26T10:21:18;100774.94;;;7.93;100.00
31005;BME280;17676;52.254;4.490;2024-02-26T10:23:46;100767.34;;;8.03;100.00
31005;BME280;17676;52.254;4.490;2024-02-26T10:26:15;100745.44;;;7.85;100.00
31005;BME280;17676;52.254;4.490;2024-02-26T10:28:43;100752.22;;;8.02;100.00
31005;BME280;17676;52.254;4.490;2024-02-26T10:31:10;100769.28;;;8.30;100.00
31005;BME280;17676;52.254;4.490;2024-02-26T10:33:38;100762.69;;;8.11;100.00
31005;BME280;17676;52.254;4.490;2024-02-26T10:36:09;100765.19;;;8.13;100.00
31005;BME280;17676;52.254;4.490;2024-02-26T10:38:37;100752.47;;;7.86;100.00
31005;BME280;17676;52.254;4.490;2024-02-26T10:41:05;100780.56;;;8.19;100.00
31005;BME280;17676;52.254;4.490;2024-02-26T10:43:32;100756.56;;;8.03;100.00
31005;BME280;17676;52.254;4.490;2024-02-26T10:45:59;100788.53;;;8.27;100.00
31005;BME280;17676;52.254;4.490;2024-02-26T10:48:25;100811.00;;;8.34;100.00
31005;BME280;17676;52.254;4.490;2024-02-26T10:50:52;100784.69;;;8.36;100.00
31005;BME280;17676;52.254;4.490;2024-02-26T10:53:20;100809.44;;;8.46;100.00
31005;BME280;17676;52.254;4.490;2024-02-26T10:56:04;100796.38;;;8.22;100.00
31005;BME280;17676;52.254;4.490;2024-02-26T10:58:31;100797.16;;;8.16;100.00
31005;BME280;17676;52.254;4.490;2024-02-26T11:00:58;100804.72;;;8.27;100.00
31005;BME280;17676;52.254;4.490;2024-02-26T11:03:26;100807.94;;;8.16;100.00
31005;BME280;17676;52.254;4.490;2024-02-26T11:05:53;100832.63;;;8.19;100.00
31005;BME280;17676;52.254;4.490;2024-02-26T11:08:21;100825.16;;;8.00;100.00
31005;BME280;17676;52.254;4.490;2024-02-26T11:10:53;100829.47;;;7.95;100.00
31005;BME280;17676;52.254;4.490;2024-02-26T11:13:21;100836.16;;;8.20;100.00
31005;BME280;17676;52.254;4.490;2024-02-26T11:15:50;100806.84;;;7.89;100.00
31005;BME280;17676;52.254;4.490;2024-02-26T11:18:19;100842.16;;;7.80;100.00
31005;BME280;17676;52.254;4.490;2024-02-26T11:20:46;100828.19;;;7.91;100.00
31005;BME280;17676;52.254;4.490;2024-02-26T11:23:14;100832.56;;;7.92;100.00
31005;BME280;17676;52.254;4.490;2024-02-26T11:25:42;100843.59;;;7.97;100.00
31005;BME280;17676;52.254;4.490;2024-02-26T11:28:13;100835.88;;;7.94;100.00
31005;BME280;17676;52.254;4.490;2024-02-26T11:30:44;100848.13;;;7.96;100.00
31005;BME280;17676;52.254;4.490;2024-02-26T11:33:12;100847.63;;;8.07;100.00
31005;BME280;17676;52.254;4.490;2024-02-26T11:35:40;100855.41;;;7.96;100.00
31005;BME280;17676;52.254;4.490;2024-02-26T11:38:07;100862.28;;;8.19;100.00
31005;BME280;17676;52.254;4.490;2024-02-26T11:40:38;100855.38;;;8.31;100.00
31005;BME280;17676;52.254;4.490;2024-02-26T11:43:08;100867.63;;;8.34;100.00
31005;BME280;17676;52.254;4.490;2024-02-26T11:45:47;100864.34;;;8.17;100.00
31005;BME280;17676;52.254;4.490;2024-02-26T11:48:19;100864.28;;;8.53;100.00
31005;BME280;17676;52.254;4.490;2024-02-26T11:50:52;100875.97;;;8.60;100.00
31005;BME280;17676;52.254;4.490;2024-02-26T11:55:46;100873.41;;;8.52;100.00
31005;BME280;17676;52.254;4.490;2024-02-26T11:58:13;100870.34;;;8.61;100.00
31005;BME280;17676;52.254;4.490;2024-02-26T12:00:40;100871.28;;;8.47;100.00
31005;BME280;17676;52.254;4.490;2024-02-26T12:03:07;100871.34;;;8.54;100.00
31005;BME280;17676;52.254;4.490;2024-02-26T12:05:37;100883.31;;;8.45;100.00
31005;BME280;17676;52.254;4.490;2024-02-26T12:08:07;100880.19;;;8.69;100.00
31005;BME280;17676;52.254;4.490;2024-02-26T12:10:39;100875.84;;;8.47;100.00
31005;BME280;17676;52.254;4.490;2024-02-26T12:13:10;100863.03;;;8.28;100.00
31005;BME280;17676;52.254;4.490;2024-02-26T12:15:45;100863.78;;;8.22;100.00
31005;BME280;17676;52.254;4.490;2024-02-26T12:18:18;100887.91;;;8.51;100.00
31005;BME280;17676;52.254;4.490;2024-02-26T12:20:45;100899.84;;;8.42;100.00
31005;BME280;17676;52.254;4.490;2024-02-26T12:23:16;100876.13;;;8.52;100.00
31005;BME280;17676;52.254;4.490;2024-02-26T12:25:46;100896.00;;;8.72;100.00
31005;BME280;17676;52.254;4.490;2024-02-26T12:28:15;100898.66;;;8.93;100.00
31005;BME280;17676;52.254;4.490;2024-02-26T12:30:41;100899.88;;;8.90;100.00
31005;BME280;17676;52.254;4.490;2024-02-26T12:33:08;100893.31;;;8.99;100.00
31005;BME280;17676;52.254;4.490;2024-02-26T12:35:35;100908.94;;;8.83;100.00
31005;BME280;17676;52.254;4.490;2024-02-26T12:38:03;100894.50;;;8.69;100.00
31005;BME280;17676;52.254;4.490;2024-02-26T12:40:31;100917.34;;;8.94;100.00
31005;BME280;17676;52.254;4.490;2024-02-26T12:42:57;100901.13;;;8.88;100.00
31005;BME280;17676;52.254;4.490;2024-02-26T12:45:25;100928.44;;;9.06;100.00
31005;BME280;17676;52.254;4.490;2024-02-26T12:47:52;100906.69;;;9.14;100.00
31005;BME280;17676;52.254;4.490;2024-02-26T12:50:19;100928.38;;;9.27;100.00
31005;BME280;17676;52.254;4.490;2024-02-26T12:52:47;100919.22;;;9.28;100.00